sensor_id;sensor_type;location;lat;lon;timestamp;pressure;altitude;pressure_sealevel;temperature
12854;BMP180;6495;51.808;7.478;2022-07-06T00:02:06;101998.00;;;17.70
12854;BMP180;6495;51.808;7.478;2022-07-06T00:04:36;101992.00;;;17.70
12854;BMP180;6495;51.808;7.478;2022-07-06T00:07:04;102001.00;;;17.70
12854;BMP180;6495;51.808;7.478;2022-07-06T00:09:35;101995.00;;;17.70
12854;BMP180;6495;51.808;7.478;2022-07-06T00:12:04;101997.00;;;17.70
12854;BMP180;6495;51.808;7.478;2022-07-06T00:14:33;101994.00;;;17.60
12854;BMP180;6495;51.808;7.478;2022-07-06T00:17:02;102000.00;;;17.60
12854;BMP180;6495;51.808;7.478;2022-07-06T00:19:31;101990.00;;;17.60
12854;BMP180;6495;51.808;7.478;2022-07-06T00:21:59;101988.00;;;17.60
12854;BMP180;6495;51.808;7.478;2022-07-06T00:24:27;101989.00;;;17.50
12854;BMP180;6495;51.808;7.478;2022-07-06T00:26:55;101991.00;;;17.40
12854;BMP180;6495;51.808;7.478;2022-07-06T00:29:23;101996.00;;;17.40
12854;BMP180;6495;51.808;7.478;2022-07-06T00:31:52;101992.00;;;17.40
12854;BMP180;6495;51.808;7.478;2022-07-06T00:34:20;101988.00;;;17.40
12854;BMP180;6495;51.808;7.478;2022-07-06T00:36:51;101992.00;;;17.40
12854;BMP180;6495;51.808;7.478;2022-07-06T00:39:19;101993.00;;;17.40
12854;BMP180;6495;51.808;7.478;2022-07-06T00:41:48;101997.00;;;17.40
12854;BMP180;6495;51.808;7.478;2022-07-06T00:44:16;102002.00;;;17.40
12854;BMP180;6495;51.808;7.478;2022-07-06T00:46:44;102000.00;;;17.30
12854;BMP180;6495;51.808;7.478;2022-07-06T00:49:14;101991.00;;;17.30
12854;BMP180;6495;51.808;7.478;2022-07-06T00:51:56;101997.00;;;17.20
12854;BMP180;6495;51.808;7.478;2022-07-06T00:54:26;101999.00;;;17.10
12854;BMP180;6495;51.808;7.478;2022-07-06T00:56:54;101996.00;;;17.10
12854;BMP180;6495;51.808;7.478;2022-07-06T00:59:23;101996.00;;;17.00
12854;BMP180;6495;51.808;7.478;2022-07-06T01:01:51;101997.00;;;17.00
12854;BMP180;6495;51.808;7.478;2022-07-06T01:04:21;102003.00;;;16.90
12854;BMP180;6495;51.808;7.478;2022-07-06T01:06:49;101996.00;;;16.90
12854;BMP180;6495;51.808;7.478;2022-07-06T01:09:17;101999.00;;;16.80
12854;BMP180;6495;51.808;7.478;2022-07-06T01:11:46;101998.00;;;16.80
12854;BMP180;6495;51.808;7.478;2022-07-06T01:14:15;102002.00;;;16.70
12854;BMP180;6495;51.808;7.478;2022-07-06T01:16:44;102002.00;;;16.70
12854;BMP180;6495;51.808;7.478;2022-07-06T01:19:12;101996.00;;;16.70
12854;BMP180;6495;51.808;7.478;2022-07-06T01:21:41;102000.00;;;16.60
12854;BMP180;6495;51.808;7.478;2022-07-06T01:24:09;101998.00;;;16.60
12854;BMP180;6495;51.808;7.478;2022-07-06T01:26:38;101999.00;;;16.60
12854;BMP180;6495;51.808;7.478;2022-07-06T01:29:06;101995.00;;;16.60
12854;BMP180;6495;51.808;7.478;2022-07-06T01:31:34;101995.00;;;16.60
12854;BMP180;6495;51.808;7.478;2022-07-06T01:34:02;101992.00;;;16.60
12854;BMP180;6495;51.808;7.478;2022-07-06T01:36:30;101998.00;;;16.60
12854;BMP180;6495;51.808;7.478;2022-07-06T01:38:59;101988.00;;;16.60
12854;BMP180;6495;51.808;7.478;2022-07-06T01:41:27;101992.00;;;16.60
12854;BMP180;6495;51.808;7.478;2022-07-06T01:43:55;101985.00;;;16.50
12854;BMP180;6495;51.808;7.478;2022-07-06T01:46:23;101984.00;;;16.50
12854;BMP180;6495;51.808;7.478;2022-07-06T01:48:52;101984.00;;;16.50
12854;BMP180;6495;51.808;7.478;2022-07-06T01:51:20;101980.00;;;16.40
12854;BMP180;6495;51.808;7.478;2022-07-06T01:53:49;101984.00;;;16.40
12854;BMP180;6495;51.808;7.478;2022-07-06T01:56:19;101976.00;;;16.40
12854;BMP180;6495;51.808;7.478;2022-07-06T01:58:48;101978.00;;;16.30
12854;BMP180;6495;51.808;7.478;2022-07-06T02:01:19;101979.00;;;16.30
12854;BMP180;6495;51.808;7.478;2022-07-06T02:03:48;101972.00;;;16.30
12854;BMP180;6495;51.808;7.478;2022-07-06T02:06:16;101970.00;;;16.30
12854;BMP180;6495;51.808;7.478;2022-07-06T02:08:44;101978.00;;;16.20
12854;BMP180;6495;51.808;7.478;2022-07-06T02:11:12;101975.00;;;16.20
12854;BMP180;6495;51.808;7.478;2022-07-06T02:13:41;101969.00;;;16.10
12854;BMP180;6495;51.808;7.478;2022-07-06T02:16:10;101978.00;;;16.10
12854;BMP180;6495;51.808;7.478;2022-07-06T02:18:38;101974.00;;;16.00
12854;BMP180;6495;51.808;7.478;2022-07-06T02:21:07;101981.00;;;16.00
12854;BMP180;6495;51.808;7.478;2022-07-06T02:23:35;101974.00;;;16.00
12854;BMP180;6495;51.808;7.478;2022-07-06T02:26:05;101975.00;;;15.90
12854;BMP180;6495;51.808;7.478;2022-07-06T02:28:34;101966.00;;;15.90
12854;BMP180;6495;51.808;7.478;2022-07-06T02:31:03;101971.00;;;15.90
12854;BMP180;6495;51.808;7.478;2022-07-06T02:33:31;101968.00;;;15.80
12854;BMP180;6495;51.808;7.478;2022-07-06T02:35:59;101966.00;;;15.80
12854;BMP180;6495;51.808;7.478;2022-07-06T02:38:27;101963.00;;;15.80
12854;BMP180;6495;51.808;7.478;2022-07-06T02:40:55;101962.00;;;15.80
12854;BMP180;6495;51.808;7.478;2022-07-06T02:43:23;101964.00;;;15.80
12854;BMP180;6495;51.808;7.478;2022-07-06T02:45:51;101956.00;;;15.80
12854;BMP180;6495;51.808;7.478;2022-07-06T02:48:21;101961.00;;;15.70
12854;BMP180;6495;51.808;7.478;2022-07-06T02:50:49;101964.00;;;15.70
12854;BMP180;6495;51.808;7.478;2022-07-06T02:53:18;101970.00;;;15.70
12854;BMP180;6495;51.808;7.478;2022-07-06T02:55:46;101979.00;;;15.70
12854;BMP180;6495;51.808;7.478;2022-07-06T02:58:14;101984.00;;;15.60
12854;BMP180;6495;51.808;7.478;2022-07-06T03:00:42;101980.00;;;15.60
12854;BMP180;6495;51.808;7.478;2022-07-06T03:03:10;101991.00;;;15.50
12854;BMP180;6495;51.808;7.478;2022-07-06T03:05:39;101992.00;;;15.40
12854;BMP180;6495;51.808;7.478;2022-07-06T03:08:07;101987.00;;;15.40
12854;BMP180;6495;51.808;7.478;2022-07-06T03:10:35;101991.00;;;15.40
12854;BMP180;6495;51.808;7.478;2022-07-06T03:13:03;101993.00;;;15.40
12854;BMP180;6495;51.808;7.478;2022-07-06T03:15:31;101993.00;;;15.40
12854;BMP180;6495;51.808;7.478;2022-07-06T03:17:59;101991.00;;;15.30
12854;BMP180;6495;51.808;7.478;2022-07-06T03:20:27;101996.00;;;15.30
12854;BMP180;6495;51.808;7.478;2022-07-06T03:22:57;101989.00;;;15.20
12854;BMP180;6495;51.808;7.478;2022-07-06T03:25:25;102000.00;;;15.20
12854;BMP180;6495;51.808;7.478;2022-07-06T03:27:53;101996.00;;;15.10
12854;BMP180;6495;51.808;7.478;2022-07-06T03:30:21;101996.00;;;15.10
12854;BMP180;6495;51.808;7.478;2022-07-06T03:32:49;102000.00;;;15.10
12854;BMP180;6495;51.808;7.478;2022-07-06T03:35:17;101997.00;;;15.10
12854;BMP180;6495;51.808;7.478;2022-07-06T03:37:45;101994.00;;;15.10
12854;BMP180;6495;51.808;7.478;2022-07-06T03:40:14;101997.00;;;15.10
12854;BMP180;6495;51.808;7.478;2022-07-06T03:42:42;102005.00;;;15.00
12854;BMP180;6495;51.808;7.478;2022-07-06T03:45:10;102002.00;;;15.00
12854;BMP180;6495;51.808;7.478;2022-07-06T03:47:38;101999.00;;;15.00
12854;BMP180;6495;51.808;7.478;2022-07-06T03:50:08;101999.00;;;15.00
12854;BMP180;6495;51.808;7.478;2022-07-06T03:52:36;101998.00;;;15.00
12854;BMP180;6495;51.808;7.478;2022-07-06T03:55:09;101999.00;;;15.00
12854;BMP180;6495;51.808;7.478;2022-07-06T03:57:39;102003.00;;;15.00
12854;BMP180;6495;51.808;7.478;2022-07-06T04:00:09;101985.00;;;15.00
12854;BMP180;6495;51.808;7.478;2022-07-06T04:02:38;101991.00;;;15.00
12854;BMP180;6495;51.808;7.478;2022-07-06T04:05:07;101982.00;;;15.00
12854;BMP180;6495;51.808;7.478;2022-07-06T04:07:35;101995.00;;;15.00
12854;BMP180;6495;51.808;7.478;2022-07-06T04:10:04;101988.00;;;14.90
12854;BMP180;6495;51.808;7.478;2022-07-06T04:12:40;101998.00;;;14.90
12854;BMP180;6495;51.808;7.478;2022-07-06T04:15:10;101996.00;;;14.90
12854;BMP180;6495;51.808;7.478;2022-07-06T04:17:38;101998.00;;;14.90
12854;BMP180;6495;51.808;7.478;2022-07-06T04:20:24;102002.00;;;14.90
12854;BMP180;6495;51.808;7.478;2022-07-06T04:22:52;102001.00;;;14.90
12854;BMP180;6495;51.808;7.478;2022-07-06T04:25:21;101994.00;;;14.90
12854;BMP180;6495;51.808;7.478;2022-07-06T04:27:50;102003.00;;;14.90
12854;BMP180;6495;51.808;7.478;2022-07-06T04:30:18;102006.00;;;14.90
12854;BMP180;6495;51.808;7.478;2022-07-06T04:32:46;101999.00;;;14.90
12854;BMP180;6495;51.808;7.478;2022-07-06T04:35:14;102009.00;;;14.90
12854;BMP180;6495;51.808;7.478;2022-07-06T04:37:42;101997.00;;;14.90
12854;BMP180;6495;51.808;7.478;2022-07-06T04:40:13;101992.00;;;14.90
12854;BMP180;6495;51.808;7.478;2022-07-06T04:42:45;101996.00;;;14.90
12854;BMP180;6495;51.808;7.478;2022-07-06T04:45:14;102002.00;;;14.90
12854;BMP180;6495;51.808;7.478;2022-07-06T04:47:42;101999.00;;;14.90
12854;BMP180;6495;51.808;7.478;2022-07-06T04:50:12;102014.00;;;14.90
12854;BMP180;6495;51.808;7.478;2022-07-06T04:52:40;102015.00;;;14.90
12854;BMP180;6495;51.808;7.478;2022-07-06T04:55:09;102006.00;;;14.90
12854;BMP180;6495;51.808;7.478;2022-07-06T04:57:37;102006.00;;;14.90
12854;BMP180;6495;51.808;7.478;2022-07-06T05:00:07;102003.00;;;14.90
12854;BMP180;6495;51.808;7.478;2022-07-06T05:02:36;102000.00;;;14.90
12854;BMP180;6495;51.808;7.478;2022-07-06T05:05:05;102007.00;;;14.80
12854;BMP180;6495;51.808;7.478;2022-07-06T05:07:33;101988.00;;;14.80
12854;BMP180;6495;51.808;7.478;2022-07-06T05:10:08;101999.00;;;14.80
12854;BMP180;6495;51.808;7.478;2022-07-06T05:12:37;102001.00;;;14.80
12854;BMP180;6495;51.808;7.478;2022-07-06T05:15:06;102005.00;;;14.80
12854;BMP180;6495;51.808;7.478;2022-07-06T05:17:36;101997.00;;;14.80
12854;BMP180;6495;51.808;7.478;2022-07-06T05:20:06;101997.00;;;14.80
12854;BMP180;6495;51.808;7.478;2022-07-06T05:22:34;101997.00;;;14.80
12854;BMP180;6495;51.808;7.478;2022-07-06T05:25:11;101998.00;;;14.80
12854;BMP180;6495;51.808;7.478;2022-07-06T05:27:39;101998.00;;;14.80
12854;BMP180;6495;51.808;7.478;2022-07-06T05:30:09;101999.00;;;14.80
12854;BMP180;6495;51.808;7.478;2022-07-06T05:32:38;102001.00;;;14.90
12854;BMP180;6495;51.808;7.478;2022-07-06T05:35:07;102001.00;;;14.90
12854;BMP180;6495;51.808;7.478;2022-07-06T05:37:56;102011.00;;;14.90
12854;BMP180;6495;51.808;7.478;2022-07-06T05:40:25;102002.00;;;14.90
12854;BMP180;6495;51.808;7.478;2022-07-06T05:42:56;102011.00;;;14.90
12854;BMP180;6495;51.808;7.478;2022-07-06T05:45:24;102009.00;;;14.90
12854;BMP180;6495;51.808;7.478;2022-07-06T05:47:53;102003.00;;;14.90
12854;BMP180;6495;51.808;7.478;2022-07-06T05:50:39;102011.00;;;15.00
12854;BMP180;6495;51.808;7.478;2022-07-06T05:53:07;102011.00;;;15.00
12854;BMP180;6495;51.808;7.478;2022-07-06T05:55:45;102017.00;;;15.10
12854;BMP180;6495;51.808;7.478;2022-07-06T05:58:13;102016.00;;;15.00
12854;BMP180;6495;51.808;7.478;2022-07-06T06:00:41;102020.00;;;15.00
12854;BMP180;6495;51.808;7.478;2022-07-06T06:03:11;102020.00;;;15.10
12854;BMP180;6495;51.808;7.478;2022-07-06T06:05:39;102022.00;;;15.10
12854;BMP180;6495;51.808;7.478;2022-07-06T06:08:08;102027.00;;;15.10
12854;BMP180;6495;51.808;7.478;2022-07-06T06:10:36;102023.00;;;15.20
12854;BMP180;6495;51.808;7.478;2022-07-06T06:13:04;102032.00;;;15.20
12854;BMP180;6495;51.808;7.478;2022-07-06T06:15:32;102044.00;;;15.20
12854;BMP180;6495;51.808;7.478;2022-07-06T06:18:00;102039.00;;;15.20
12854;BMP180;6495;51.808;7.478;2022-07-06T06:20:32;102040.00;;;15.30
12854;BMP180;6495;51.808;7.478;2022-07-06T06:23:00;102039.00;;;15.30
12854;BMP180;6495;51.808;7.478;2022-07-06T06:25:32;102042.00;;;15.40
12854;BMP180;6495;51.808;7.478;2022-07-06T06:28:02;102039.00;;;15.40
12854;BMP180;6495;51.808;7.478;2022-07-06T06:30:31;102042.00;;;15.40
12854;BMP180;6495;51.808;7.478;2022-07-06T06:33:10;102045.00;;;15.50
12854;BMP180;6495;51.808;7.478;2022-07-06T06:35:43;102038.00;;;15.60
12854;BMP180;6495;51.808;7.478;2022-07-06T06:38:13;102038.00;;;15.60
12854;BMP180;6495;51.808;7.478;2022-07-06T06:40:42;102049.00;;;15.70
12854;BMP180;6495;51.808;7.478;2022-07-06T06:43:10;102042.00;;;15.80
12854;BMP180;6495;51.808;7.478;2022-07-06T06:45:39;102042.00;;;15.80
12854;BMP180;6495;51.808;7.478;2022-07-06T06:48:07;102041.00;;;15.90
12854;BMP180;6495;51.808;7.478;2022-07-06T06:50:44;102039.00;;;15.90
12854;BMP180;6495;51.808;7.478;2022-07-06T06:53:13;102050.00;;;16.00
12854;BMP180;6495;51.808;7.478;2022-07-06T06:55:41;102050.00;;;16.10
12854;BMP180;6495;51.808;7.478;2022-07-06T06:58:09;102056.00;;;16.10
12854;BMP180;6495;51.808;7.478;2022-07-06T07:00:37;102053.00;;;16.10
12854;BMP180;6495;51.808;7.478;2022-07-06T07:03:05;102060.00;;;16.20
12854;BMP180;6495;51.808;7.478;2022-07-06T07:05:33;102061.00;;;16.30
12854;BMP180;6495;51.808;7.478;2022-07-06T07:08:03;102059.00;;;16.30
12854;BMP180;6495;51.808;7.478;2022-07-06T07:10:32;102056.00;;;16.40
12854;BMP180;6495;51.808;7.478;2022-07-06T07:13:00;102060.00;;;16.40
12854;BMP180;6495;51.808;7.478;2022-07-06T07:15:28;102066.00;;;16.50
12854;BMP180;6495;51.808;7.478;2022-07-06T07:17:56;102058.00;;;16.50
12854;BMP180;6495;51.808;7.478;2022-07-06T07:20:24;102060.00;;;16.60
12854;BMP180;6495;51.808;7.478;2022-07-06T07:22:52;102064.00;;;16.60
12854;BMP180;6495;51.808;7.478;2022-07-06T07:25:22;102079.00;;;16.60
12854;BMP180;6495;51.808;7.478;2022-07-06T07:27:50;102067.00;;;16.70
12854;BMP180;6495;51.808;7.478;2022-07-06T07:30:21;102077.00;;;16.70
12854;BMP180;6495;51.808;7.478;2022-07-06T07:32:49;102077.00;;;16.70
12854;BMP180;6495;51.808;7.478;2022-07-06T07:35:18;102075.00;;;16.70
12854;BMP180;6495;51.808;7.478;2022-07-06T07:37:47;102074.00;;;16.70
12854;BMP180;6495;51.808;7.478;2022-07-06T07:40:16;102082.00;;;16.70
12854;BMP180;6495;51.808;7.478;2022-07-06T07:42:45;102087.00;;;16.80
12854;BMP180;6495;51.808;7.478;2022-07-06T07:45:13;102085.00;;;16.80
12854;BMP180;6495;51.808;7.478;2022-07-06T07:47:42;102083.00;;;16.90
12854;BMP180;6495;51.808;7.478;2022-07-06T07:50:11;102093.00;;;16.90
12854;BMP180;6495;51.808;7.478;2022-07-06T07:52:39;102090.00;;;16.90
12854;BMP180;6495;51.808;7.478;2022-07-06T07:55:08;102085.00;;;17.00
12854;BMP180;6495;51.808;7.478;2022-07-06T07:57:58;102091.00;;;17.00
12854;BMP180;6495;51.808;7.478;2022-07-06T08:00:27;102080.00;;;17.00
12854;BMP180;6495;51.808;7.478;2022-07-06T08:02:55;102091.00;;;17.00
12854;BMP180;6495;51.808;7.478;2022-07-06T08:05:24;102092.00;;;17.10
12854;BMP180;6495;51.808;7.478;2022-07-06T08:07:52;102094.00;;;17.10
12854;BMP180;6495;51.808;7.478;2022-07-06T08:10:20;102082.00;;;17.10
12854;BMP180;6495;51.808;7.478;2022-07-06T08:12:49;102091.00;;;17.20
12854;BMP180;6495;51.808;7.478;2022-07-06T08:15:19;102087.00;;;17.30
12854;BMP180;6495;51.808;7.478;2022-07-06T08:17:47;102089.00;;;17.30
12854;BMP180;6495;51.808;7.478;2022-07-06T08:20:15;102092.00;;;17.40
12854;BMP180;6495;51.808;7.478;2022-07-06T08:22:43;102093.00;;;17.40
12854;BMP180;6495;51.808;7.478;2022-07-06T08:25:18;102090.00;;;17.40
12854;BMP180;6495;51.808;7.478;2022-07-06T08:27:55;102088.00;;;17.50
12854;BMP180;6495;51.808;7.478;2022-07-06T08:30:52;102088.00;;;17.60
12854;BMP180;6495;51.808;7.478;2022-07-06T08:34:05;102085.00;;;17.60
12854;BMP180;6495;51.808;7.478;2022-07-06T08:37:04;102078.00;;;17.70
12854;BMP180;6495;51.808;7.478;2022-07-06T08:40:10;102072.00;;;17.70
12854;BMP180;6495;51.808;7.478;2022-07-06T08:42:48;102071.00;;;17.70
12854;BMP180;6495;51.808;7.478;2022-07-06T08:45:29;102077.00;;;17.80
12854;BMP180;6495;51.808;7.478;2022-07-06T08:48:12;102080.00;;;17.80
12854;BMP180;6495;51.808;7.478;2022-07-06T08:50:46;102087.00;;;17.90
12854;BMP180;6495;51.808;7.478;2022-07-06T08:53:17;102079.00;;;17.90
12854;BMP180;6495;51.808;7.478;2022-07-06T08:55:50;102080.00;;;17.90
12854;BMP180;6495;51.808;7.478;2022-07-06T08:58:26;102078.00;;;17.90
12854;BMP180;6495;51.808;7.478;2022-07-06T09:01:05;102081.00;;;17.90
12854;BMP180;6495;51.808;7.478;2022-07-06T09:03:43;102079.00;;;18.00
12854;BMP180;6495;51.808;7.478;2022-07-06T09:06:25;102077.00;;;18.00
12854;BMP180;6495;51.808;7.478;2022-07-06T09:09:02;102087.00;;;18.00
12854;BMP180;6495;51.808;7.478;2022-07-06T09:11:36;102083.00;;;18.10
12854;BMP180;6495;51.808;7.478;2022-07-06T09:14:14;102071.00;;;18.20
12854;BMP180;6495;51.808;7.478;2022-07-06T09:16:51;102080.00;;;18.40
12854;BMP180;6495;51.808;7.478;2022-07-06T09:19:35;102071.00;;;18.50
12854;BMP180;6495;51.808;7.478;2022-07-06T09:22:38;102067.00;;;18.80
12854;BMP180;6495;51.808;7.478;2022-07-06T09:25:29;102063.00;;;18.90
12854;BMP180;6495;51.808;7.478;2022-07-06T09:28:13;102065.00;;;19.00
12854;BMP180;6495;51.808;7.478;2022-07-06T09:31:22;102068.00;;;19.30
12854;BMP180;6495;51.808;7.478;2022-07-06T09:34:51;102065.00;;;19.50
12854;BMP180;6495;51.808;7.478;2022-07-06T09:38:32;102068.00;;;19.60
12854;BMP180;6495;51.808;7.478;2022-07-06T09:41:38;102063.00;;;19.60
12854;BMP180;6495;51.808;7.478;2022-07-06T09:44:40;102069.00;;;19.60
12854;BMP180;6495;51.808;7.478;2022-07-06T09:47:48;102070.00;;;19.80
12854;BMP180;6495;51.808;7.478;2022-07-06T09:51:07;102069.00;;;20.00
12854;BMP180;6495;51.808;7.478;2022-07-06T09:54:17;102063.00;;;20.10
12854;BMP180;6495;51.808;7.478;2022-07-06T09:57:28;102067.00;;;20.00
12854;BMP180;6495;51.808;7.478;2022-07-06T10:00:57;102069.00;;;19.80
12854;BMP180;6495;51.808;7.478;2022-07-06T10:03:25;102071.00;;;19.90
12854;BMP180;6495;51.808;7.478;2022-07-06T10:05:56;102072.00;;;19.90
12854;BMP180;6495;51.808;7.478;2022-07-06T10:08:27;102070.00;;;19.90
12854;BMP180;6495;51.808;7.478;2022-07-06T10:10:58;102079.00;;;19.90
12854;BMP180;6495;51.808;7.478;2022-07-06T10:13:28;102072.00;;;19.80
12854;BMP180;6495;51.808;7.478;2022-07-06T10:15:58;102076.00;;;19.90
12854;BMP180;6495;51.808;7.478;2022-07-06T10:18:27;102079.00;;;19.90
12854;BMP180;6495;51.808;7.478;2022-07-06T10:21:02;102080.00;;;19.90
12854;BMP180;6495;51.808;7.478;2022-07-06T10:23:33;102072.00;;;19.80
12854;BMP180;6495;51.808;7.478;2022-07-06T10:26:06;102079.00;;;19.90
12854;BMP180;6495;51.808;7.478;2022-07-06T10:28:41;102080.00;;;19.90
12854;BMP180;6495;51.808;7.478;2022-07-06T10:31:10;102071.00;;;19.90
12854;BMP180;6495;51.808;7.478;2022-07-06T10:33:40;102072.00;;;19.90
12854;BMP180;6495;51.808;7.478;2022-07-06T10:36:15;102072.00;;;19.90
12854;BMP180;6495;51.808;7.478;2022-07-06T10:38:50;102068.00;;;20.00
12854;BMP180;6495;51.808;7.478;2022-07-06T10:41:31;102059.00;;;20.00
12854;BMP180;6495;51.808;7.478;2022-07-06T10:44:15;102061.00;;;20.10
12854;BMP180;6495;51.808;7.478;2022-07-06T10:46:53;102058.00;;;20.10
12854;BMP180;6495;51.808;7.478;2022-07-06T10:49:23;102051.00;;;20.20
12854;BMP180;6495;51.808;7.478;2022-07-06T10:52:17;102058.00;;;20.30
12854;BMP180;6495;51.808;7.478;2022-07-06T10:54:46;102056.00;;;20.40
12854;BMP180;6495;51.808;7.478;2022-07-06T10:57:15;102060.00;;;20.30
12854;BMP180;6495;51.808;7.478;2022-07-06T11:00:02;102063.00;;;20.30
12854;BMP180;6495;51.808;7.478;2022-07-06T11:02:38;102058.00;;;20.40
12854;BMP180;6495;51.808;7.478;2022-07-06T11:05:11;102066.00;;;20.40
12854;BMP180;6495;51.808;7.478;2022-07-06T11:07:50;102054.00;;;20.60
12854;BMP180;6495;51.808;7.478;2022-07-06T11:10:22;102052.00;;;20.80
12854;BMP180;6495;51.808;7.478;2022-07-06T11:12:58;102046.00;;;20.90
12854;BMP180;6495;51.808;7.478;2022-07-06T11:15:46;102054.00;;;21.10
12854;BMP180;6495;51.808;7.478;2022-07-06T11:18:19;102053.00;;;21.20
12854;BMP180;6495;51.808;7.478;2022-07-06T11:21:18;102047.00;;;21.30
12854;BMP180;6495;51.808;7.478;2022-07-06T11:23:52;102041.00;;;21.40
12854;BMP180;6495;51.808;7.478;2022-07-06T11:26:24;102041.00;;;21.50
12854;BMP180;6495;51.808;7.478;2022-07-06T11:29:07;102039.00;;;21.50
12854;BMP180;6495;51.808;7.478;2022-07-06T11:31:40;102030.00;;;21.60
12854;BMP180;6495;51.808;7.478;2022-07-06T11:34:17;102044.00;;;21.50
12854;BMP180;6495;51.808;7.478;2022-07-06T11:36:47;102039.00;;;21.40
12854;BMP180;6495;51.808;7.478;2022-07-06T11:39:17;102045.00;;;21.40
12854;BMP180;6495;51.808;7.478;2022-07-06T11:41:47;102040.00;;;21.50
12854;BMP180;6495;51.808;7.478;2022-07-06T11:44:18;102038.00;;;21.50
12854;BMP180;6495;51.808;7.478;2022-07-06T11:46:49;102037.00;;;21.60
12854;BMP180;6495;51.808;7.478;2022-07-06T11:49:18;102038.00;;;21.70
12854;BMP180;6495;51.808;7.478;2022-07-06T11:51:50;102047.00;;;21.70
12854;BMP180;6495;51.808;7.478;2022-07-06T11:54:28;102032.00;;;21.80
12854;BMP180;6495;51.808;7.478;2022-07-06T11:57:02;102034.00;;;21.90
12854;BMP180;6495;51.808;7.478;2022-07-06T11:59:35;102033.00;;;22.00
12854;BMP180;6495;51.808;7.478;2022-07-06T12:02:11;102037.00;;;22.00
12854;BMP180;6495;51.808;7.478;2022-07-06T12:04:46;102039.00;;;22.00
12854;BMP180;6495;51.808;7.478;2022-07-06T12:07:17;102033.00;;;22.00
12854;BMP180;6495;51.808;7.478;2022-07-06T12:09:48;102034.00;;;22.00
12854;BMP180;6495;51.808;7.478;2022-07-06T12:12:16;102022.00;;;22.10
12854;BMP180;6495;51.808;7.478;2022-07-06T12:14:45;102027.00;;;22.20
12854;BMP180;6495;51.808;7.478;2022-07-06T12:17:16;102022.00;;;22.30
12854;BMP180;6495;51.808;7.478;2022-07-06T12:19:44;102016.00;;;22.20
12854;BMP180;6495;51.808;7.478;2022-07-06T12:22:13;102015.00;;;22.20
12854;BMP180;6495;51.808;7.478;2022-07-06T12:24:53;102024.00;;;22.10
12854;BMP180;6495;51.808;7.478;2022-07-06T12:27:34;102008.00;;;22.10
12854;BMP180;6495;51.808;7.478;2022-07-06T12:30:12;102010.00;;;22.20
12854;BMP180;6495;51.808;7.478;2022-07-06T12:33:13;102003.00;;;22.30
12854;BMP180;6495;51.808;7.478;2022-07-06T12:35:47;101997.00;;;22.40
12854;BMP180;6495;51.808;7.478;2022-07-06T12:38:22;101989.00;;;22.40
12854;BMP180;6495;51.808;7.478;2022-07-06T12:40:56;101993.00;;;22.40
12854;BMP180;6495;51.808;7.478;2022-07-06T12:43:38;101994.00;;;22.40
12854;BMP180;6495;51.808;7.478;2022-07-06T12:46:31;101993.00;;;22.50
12854;BMP180;6495;51.808;7.478;2022-07-06T12:49:13;101987.00;;;22.50
12854;BMP180;6495;51.808;7.478;2022-07-06T12:52:00;101988.00;;;22.60
12854;BMP180;6495;51.808;7.478;2022-07-06T12:54:33;101984.00;;;22.60
12854;BMP180;6495;51.808;7.478;2022-07-06T12:57:27;101991.00;;;22.50
12854;BMP180;6495;51.808;7.478;2022-07-06T13:00:03;101987.00;;;22.50
12854;BMP180;6495;51.808;7.478;2022-07-06T13:02:43;101984.00;;;22.60
12854;BMP180;6495;51.808;7.478;2022-07-06T13:05:34;101980.00;;;22.60
12854;BMP180;6495;51.808;7.478;2022-07-06T13:08:06;101983.00;;;22.70
12854;BMP180;6495;51.808;7.478;2022-07-06T13:10:39;101971.00;;;22.80
12854;BMP180;6495;51.808;7.478;2022-07-06T13:13:17;101968.00;;;22.80
12854;BMP180;6495;51.808;7.478;2022-07-06T13:15:58;101974.00;;;23.00
12854;BMP180;6495;51.808;7.478;2022-07-06T13:18:33;101975.00;;;23.00
12854;BMP180;6495;51.808;7.478;2022-07-06T13:21:14;101973.00;;;23.00
12854;BMP180;6495;51.808;7.478;2022-07-06T13:23:59;101962.00;;;23.00
12854;BMP180;6495;51.808;7.478;2022-07-06T13:27:06;101969.00;;;23.00
12854;BMP180;6495;51.808;7.478;2022-07-06T13:30:09;101972.00;;;23.10
12854;BMP180;6495;51.808;7.478;2022-07-06T13:33:24;101970.00;;;23.20
12854;BMP180;6495;51.808;7.478;2022-07-06T13:36:24;101967.00;;;23.20
12854;BMP180;6495;51.808;7.478;2022-07-06T13:40:35;101969.00;;;23.40
12854;BMP180;6495;51.808;7.478;2022-07-06T13:48:11;101971.00;;;23.60
12854;BMP180;6495;51.808;7.478;2022-07-06T13:52:09;101973.00;;;23.60
12854;BMP180;6495;51.808;7.478;2022-07-06T13:55:38;101968.00;;;23.50
12854;BMP180;6495;51.808;7.478;2022-07-06T13:58:32;101977.00;;;23.50
12854;BMP180;6495;51.808;7.478;2022-07-06T14:01:16;101976.00;;;23.50
12854;BMP180;6495;51.808;7.478;2022-07-06T14:04:30;101974.00;;;23.50
12854;BMP180;6495;51.808;7.478;2022-07-06T14:07:40;101958.00;;;23.50
12854;BMP180;6495;51.808;7.478;2022-07-06T14:11:04;101956.00;;;23.40
12854;BMP180;6495;51.808;7.478;2022-07-06T14:13:41;101957.00;;;23.50
12854;BMP180;6495;51.808;7.478;2022-07-06T14:16:36;101963.00;;;23.40
12854;BMP180;6495;51.808;7.478;2022-07-06T14:19:43;101955.00;;;23.40
12854;BMP180;6495;51.808;7.478;2022-07-06T14:22:16;101951.00;;;23.40
12854;BMP180;6495;51.808;7.478;2022-07-06T14:25:36;101957.00;;;23.50
12854;BMP180;6495;51.808;7.478;2022-07-06T14:28:40;101950.00;;;23.50
12854;BMP180;6495;51.808;7.478;2022-07-06T14:31:32;101946.00;;;23.50
12854;BMP180;6495;51.808;7.478;2022-07-06T14:46:12;101943.00;;;23.60
12854;BMP180;6495;51.808;7.478;2022-07-06T14:49:03;101937.00;;;23.60
12854;BMP180;6495;51.808;7.478;2022-07-06T14:52:05;101934.00;;;23.60
12854;BMP180;6495;51.808;7.478;2022-07-06T14:55:04;101937.00;;;23.50
12854;BMP180;6495;51.808;7.478;2022-07-06T14:58:08;101931.00;;;23.60
12854;BMP180;6495;51.808;7.478;2022-07-06T15:01:21;101926.00;;;23.60
12854;BMP180;6495;51.808;7.478;2022-07-06T15:05:06;101918.00;;;23.60
12854;BMP180;6495;51.808;7.478;2022-07-06T15:11:10;101919.00;;;23.60
12854;BMP180;6495;51.808;7.478;2022-07-06T15:24:32;101906.00;;;23.80
12854;BMP180;6495;51.808;7.478;2022-07-06T15:27:48;101907.00;;;23.90
12854;BMP180;6495;51.808;7.478;2022-07-06T15:31:40;101900.00;;;24.00
12854;BMP180;6495;51.808;7.478;2022-07-06T15:34:36;101904.00;;;24.10